NWS Home NWS Lubbock West Texas Mesonet Latest Conditions as of 0254 AM, Thu Oct 23, 2014

Latest   N   C   S   Daily Sum   3hrΔ   24hrΔ   Soil Data 
Site Map   24hr Precip   72hr Precip   Google Plot


Station Time of Last Temp Dew Pt. RH Wind Direction Wind Speed Wind Gust Max Wind Max Temp Min Temp Max RH Min RH Altimeter 1HR Rain Today's Rain Solar Rad
Abernathy 5ENE  02:50 AM 55 54 100% S67 16 mph 184° @ 0110 AM 58 55 100 98 30.15" 0 0.00 0
Aiken 3WSW  02:52 AM 57 56 98% S78 20 mph 198° @ 0158 AM 59 57 98 95 30.14" 0 0.00 0
Amarillo 15NNW   02:50 AM 60 58 93% S77 20 mph 171° @ 1206 AM 62 59 93 90 30.10" 0 0.00 0
Amarillo 7SSE  02:51 AM 60 58 92% S1013 19 mph 197° @ 1201 AM 61 60 93 92 30.13" 0 0.00 0
Amarillo 9NNE  02:50 AM 61 58 91% S68 21 mph 183° @ 1234 AM 63 61 91 88 30.10" 0 0.00 0
Amherst 1NE  02:50 AM 55 54 100% S57 15 mph 180° @ 1205 AM 59 55 100 98 30.14" 0 0.00 0
Andrews 2E  02:50 AM 56 53 93% S45 12 mph 185° @ 0155 AM 57 55 92 81 30.13" 0 0.00 0
Anton 6SSW  02:50 AM 53 52 100% SE34 10 mph 165° @ 1235 AM 58 53 100 100 30.14" 0 0.00 0
Aspermont 3NE  02:50 AM 62 61 99% SW23 6 mph 142° @ 0100 AM 62 61 99 98 30.11" 0 0.00 0
Big Bend NP - Persimmon Gap  02:51 AM 61 59 94% NE910 16 mph 18° @ 1204 AM 63 61 96 91 30.14" 0 0.00 0
Big Lake 1WNW  02:50 AM 55 53 95% S78 10 mph 167° @ 0230 AM 56 54 95 88 30.14" 0 0.00 0
Bootleg 11WNW  02:51 AM 57 56 98% SW1618 22 mph 207° @ 0244 AM 57 55 98 94 30.15" 0 0.00 0
Brownfield 2S  02:50 AM 51 50 98% S44 12 mph 179° @ 1230 AM 56 51 98 95 30.14" 0 0.00 0
Canadian 6E  02:51 AM 61 59 94% S67 16 mph 197° @ 1228 AM 62 61 94 91 30.08" 0 0.00 0
Caprock Canyons State Park  02:50 AM 58 57 96% S910 14 mph 192° @ 0244 AM 62 57 98 90 30.12" 0 0.00 0
Childress 2NNE  02:50 AM 57 56 99% SW55 8 mph 191° @ 0155 AM 60 57 99 99 30.11" 0 0.00 0
Clarendon 2WSW  02:50 AM 59 56 94% S912 18 mph 172° @ 1240 AM 61 58 94 92 30.12" 0 0.00 0
Claude 12SW  02:50 AM 60 57 90% SW1215 17 mph 207° @ 0233 AM 61 60 96 91 30.13" 0 0.00 0
Coyanosa 2N  02:50 AM 59 58 96% E67 13 mph 119° @ 1224 AM 62 59 96 92 30.09" 0 0.00 0
Denver City 7WNW  02:50 AM 52 51 98% SW79 11 mph 167° @ 1240 AM 55 52 99 95 30.13" 0 0.00 0
Dimmitt 2NE  02:50 AM 59 57 95% S1417 20 mph 170° @ 0125 AM 60 59 95 93 30.13" 0 0.00 0
Dora NM 2SW  02:50 AM 56 55 98% S1316 21 mph 200° @ 0135 AM 58 55 98 97 30.14" 0 0.00 0
Dozier 3W  02:50 AM 59 58 99% S67 10 mph 172° @ 1245 AM 61 59 99 98 30.12" 0 0.00 0
Floydada 2NNE  02:50 AM 55 55 100% SW912 16 mph 186° @ 0105 AM 58 55 100 99 30.13" 0 0.00 0
Fluvanna 3WNW  02:50 AM 58 55 89% S810 10 mph 186° @ 0110 AM 59 58 92 87 30.13" 0 0.00 0
Friona 2NE  02:50 AM 59 57 93% SW1215 24 mph 202° @ 1240 AM 60 59 95 93 30.14" 0 0.00 0
Gail 2ESE  02:50 AM 55 52 93% SW12 8 mph 195° @ 0130 AM 58 55 96 91 30.13" 0 0.00 0
Goodlett 3W  02:50 AM 59 57 94% SW22 5 mph 193° @ 0155 AM 61 59 94 92 30.09" 0 0.00 0
Graham 5SSW  02:50 AM 57 53 88% S47 13 mph 164° @ 1250 AM 58 57 96 86 30.14" 0 0.00 0
Guadalupe Mtns Natl Park  02:50 AM 57 51 83% W67 10 mph 255° @ 0243 AM 58 53 91 81 30.22" 0 0.00 0
Guthrie 10WSW  02:50 AM 57 56 97% SW34 4 mph 191° @ 0225 AM 61 57 97 93 30.11" 0 0.00 0
Hart 3N  02:50 AM 58 56 96% S1115 20 mph 181° @ 1205 AM 60 58 96 92 30.13" 0 0.00 0
Haskell 1NW  02:50 AM 64 58 85% S33 5 mph 128° @ 0210 AM 64 62 95 81 30.10" 0 0.00 0
Hereford 2NW  02:50 AM 60 56 89% SW1217 23 mph 190° @ 1235 AM 61 60 90 87 30.13" 0 0.00 0
Hobbs NM 5NW  02:50 AM 56 54 94% SW810 13 mph 200° @ 0227 AM 57 55 95 90 30.16" 0 0.00 0
Jayton 1SSE  02:50 AM 59 58 97% W34 6 mph 178° @ 1210 AM 60 58 97 93 30.12" 0 0.00 0
Junction 1SSW  02:50 AM 61 61 98% SE23 6 mph 168° @ 0151 AM 62 61 99 98 30.12" 0 0.00 0
Knox City 3NW  02:50 AM 61 58 91% SW24 5 mph 331° @ 0135 AM 63 60 91 88 30.10" 0 0.00 0
Lake Alan Henry 1NW  02:51 AM 58 57 94% NW33 8 mph 176° @ 1201 AM 59 58 94 92 30.12" 0 0.00 0
Lamesa 2SE  02:50 AM 52 51 97% S11 10 mph 172° @ 1235 AM 56 52 97 92 30.14" 0 0.00 0
Levelland 4S  02:50 AM 52 50 95% S55 11 mph 171° @ 1245 AM 57 52 95 94 30.14" 0 0.00 0
Lomax 1SSE  02:50 AM 55 53 95% SE22 9 mph 161° @ 1221 AM 58 55 95 86 30.13" 0 0.00 0
Lubbock 3WNW TTU  02:50 AM 55 53 95% S57 11 mph 162° @ 1240 AM 59 55 96 95 30.14" 0 0.00 0
McLean 1E  02:50 AM 59 58 98% S1014 20 mph 175° @ 1205 AM 59 58 100 99 30.10" 0 0.00 0
Memphis 1NE  02:50 AM 60 60 99% SE57 9 mph 153° @ 1240 AM 62 60 99 98 30.11" 0 0.00 0
Menard 2NW   02:50 AM 59 56 90% S22 5 mph 273° @ 1203 AM 63 59 89 74 30.13" 0 0.00 0
Mertzon 3NNE  02:51 AM 55 54 97% S22 6 mph 185° @ 0139 AM 57 54 97 94 30.14" 0 0.00 0
Morton 1ENE  02:50 AM 54 53 100% S34 12 mph 178° @ 1210 AM 58 53 100 97 30.14" 0 0.00 0
Muleshoe 2SSW  02:50 AM 60 58 94% S912 20 mph 186° @ 1210 AM 61 60 95 93 30.14" 0 0.00 0
Northfield 1S  02:50 AM 56 56 100% SE56 7 mph 144° @ 0235 AM 59 56 100 99 30.11" 0 0.00 0
O'Donnell 1N  02:50 AM 52 50 94% S45 12 mph 173° @ 0115 AM 57 53 93 89 30.14" 0 0.00 0
Odell 4ENE  02:50 AM 61 60 94% SE56 11 mph 111° @ 0200 AM 62 61 94 91 30.10" 0 0.00 0
Olton 6S  02:50 AM 56 54 95% S89 20 mph 179° @ 1205 AM 59 56 95 92 30.14" 0 0.00 0
Paducah 10SW  02:50 AM 60 59 98% S810 10 mph 176° @ 0140 AM 61 60 98 97 30.11" 0 0.00 0
Palo Duro Canyon State Park  02:51 AM 61 57 86% S915 18 mph 190° @ 0141 AM 62 61 90 84 30.14" 0 0.00 0
Pampa 2E  02:50 AM 60 58 95% S1016 19 mph 179° @ 0150 AM 61 60 96 94 30.11" 0 0.00 0
Plains 3N  02:50 AM 52 50 96% S56 12 mph 169° @ 1205 AM 56 52 98 94 30.14" 0 0.00 0
Plainview 1S  02:50 AM 57 57 100% S710 15 mph 199° @ 0220 AM 59 57 100 96 30.13" 0 0.00 0
Post 1NE  02:50 AM 57 54 90% S23 11 mph 193° @ 0125 AM 59 55 99 86 30.13" 0 0.00 0
Ralls 1SE  02:50 AM 55 54 100% S810 10 mph 191° @ 0245 AM 58 55 100 99 30.14" 0 0.00 0
Reese Center  02:50 AM 53 52 98% S77 12 mph 172° @ 1215 AM 57 53 98 98 30.14" 0 0.00 0
Roaring Springs 3N  02:50 AM 56 55 100% S910 14 mph 194° @ 0145 AM 58 56 100 99 30.11" 0 0.00 0
San Angelo 7NW  02:50 AM 56 53 90% W12 7 mph 336° @ 0215 AM 59 55 92 86 30.12" 0 0.00 0
Seminole 2NNE  02:50 AM 54 51 92% SW45 8 mph 159° @ 1205 AM 56 53 94 91 30.13" 0 0.00 0
Seymour 3NW  02:50 AM 62 59 93% SE56 5 mph 132° @ 0245 AM 63 62 93 90 30.08" 0 0.01 0
Silverton 7ESE  02:50 AM 57 56 96% SW1418 21 mph 207° @ 0205 AM 61 56 98 91 30.12" 0 0.00 0
Slaton 2NE  02:50 AM 51 50 98% S45 8 mph 150° @ 1205 AM 56 52 98 98 30.14" 0 0.00 0
Snyder 3E  02:50 AM 58 56 98% S57 8 mph 176° @ 1210 AM 58 56 99 97 30.12" 0 0.00 0
Spur 1W  02:50 AM 53 52 97% SW22 5 mph 222° @ 1255 AM 57 53 97 95 30.11" 0 0.00 0
St. Lawrence 5SW  02:50 AM 53 52 97% SE78 10 mph 154° @ 1230 AM 55 53 96 85 30.13" 0 0.00 0
Sterling City 4WSW  02:51 AM 54 53 94% E22 4 mph 168° @ 0212 AM 61 54 95 79 30.13" 0 0.00 0
Sundown 8WSW  02:50 AM 52 50 97% S67 10 mph 192° @ 1255 AM 56 52 97 96 30.14" 0 0.00 0
Sweetwater 11SW   02:50 AM 58 55 90% S23 7 mph 155° @ 1241 AM 58 55 94 86 30.14" 0 0.00 0
Tahoka 3NNE  02:50 AM 53 51 95% S34 12 mph 172° @ 1241 AM 57 53 96 92 30.14" 0 0.00 0
Tarzan 2WNW  02:50 AM 53 52 95% SE56 10 mph 172° @ 1220 AM 57 53 95 89 30.13" 0 0.00 0
Tatum NM 2SW  02:50 AM 53 51 95% S79 9 mph 188° @ 0245 AM 55 51 95 93 30.14" 0 0.00 0
Tulia 2ENE  02:50 AM 58 56 97% SW1113 19 mph 192° @ 1230 AM 61 58 98 96 30.13" 0 0.00 0
Turkey 2WSW  02:50 AM 56 55 99% S56 10 mph 172° @ 1220 AM 60 56 99 95 30.11" 0 0.00 0
Umbarger 3NNE  02:50 AM 60 58 92% S911 21 mph 200° @ 1209 AM 61 60 93 91 30.13" 0 0.00 0
Wall 1E  02:50 AM 57 53 87% NW56 8 mph 221° @ 0130 AM 60 56 87 82 30.13" 0 0.00 0
Weinert 2NNE  02:51 AM 61 60 95% N00 7 mph 118° @ 0105 AM 62 61 96 93 30.10" 0 0.00 0
White River Lake 6NW  02:50 AM 58 57 99% S89 8 mph 198° @ 0245 AM 58 55 99 98 30.13" 0 0.01 0
Wolfforth 6SSW  02:50 AM 52 52 100% S56 9 mph 166° @ 1210 AM 57 52 100 100 30.14" 0 0.00 0

West Texas Mesonet Home   Site Map/Menu  NWS Lubbock Soil Data  Daily Summary Page  24hr Precip  72hr Precip  Google Plot